sensor_id;sensor_type;location;lat;lon;timestamp;P1;durP1;ratioP1;P2;durP2;ratioP2
29314;SDS011;16320;53.954;9.506;2022-12-18T00:02:42;49.38;;;25.15;;
29314;SDS011;16320;53.954;9.506;2022-12-18T00:05:48;50.13;;;24.83;;
29314;SDS011;16320;53.954;9.506;2022-12-18T00:08:57;48.13;;;25.98;;
29314;SDS011;16320;53.954;9.506;2022-12-18T00:12:03;50.33;;;25.30;;
29314;SDS011;16320;53.954;9.506;2022-12-18T00:15:18;47.45;;;24.88;;
29314;SDS011;16320;53.954;9.506;2022-12-18T00:18:23;48.95;;;26.02;;
29314;SDS011;16320;53.954;9.506;2022-12-18T00:21:28;50.55;;;26.40;;
29314;SDS011;16320;53.954;9.506;2022-12-18T00:24:35;50.13;;;25.13;;
29314;SDS011;16320;53.954;9.506;2022-12-18T00:27:40;58.33;;;25.35;;
29314;SDS011;16320;53.954;9.506;2022-12-18T00:30:46;46.33;;;24.83;;
29314;SDS011;16320;53.954;9.506;2022-12-18T00:33:54;50.22;;;25.70;;
29314;SDS011;16320;53.954;9.506;2022-12-18T00:37:00;45.53;;;24.33;;
29314;SDS011;16320;53.954;9.506;2022-12-18T00:40:05;51.67;;;25.95;;
29314;SDS011;16320;53.954;9.506;2022-12-18T00:43:11;44.90;;;23.80;;
29314;SDS011;16320;53.954;9.506;2022-12-18T00:46:18;49.97;;;26.02;;
29314;SDS011;16320;53.954;9.506;2022-12-18T00:49:23;49.75;;;24.38;;
29314;SDS011;16320;53.954;9.506;2022-12-18T00:52:27;49.83;;;25.98;;
29314;SDS011;16320;53.954;9.506;2022-12-18T00:55:32;50.30;;;25.65;;
29314;SDS011;16320;53.954;9.506;2022-12-18T00:58:36;46.78;;;24.67;;
29314;SDS011;16320;53.954;9.506;2022-12-18T01:01:43;47.25;;;24.65;;
29314;SDS011;16320;53.954;9.506;2022-12-18T01:04:51;45.80;;;24.33;;
29314;SDS011;16320;53.954;9.506;2022-12-18T01:07:56;46.80;;;23.90;;
29314;SDS011;16320;53.954;9.506;2022-12-18T01:11:14;48.03;;;24.45;;
29314;SDS011;16320;53.954;9.506;2022-12-18T01:14:24;42.20;;;22.48;;
29314;SDS011;16320;53.954;9.506;2022-12-18T01:17:30;43.20;;;22.88;;
29314;SDS011;16320;53.954;9.506;2022-12-18T01:20:34;43.65;;;24.15;;
29314;SDS011;16320;53.954;9.506;2022-12-18T01:23:39;43.50;;;21.85;;
29314;SDS011;16320;53.954;9.506;2022-12-18T01:26:45;44.63;;;22.30;;
29314;SDS011;16320;53.954;9.506;2022-12-18T01:29:51;41.83;;;23.02;;
29314;SDS011;16320;53.954;9.506;2022-12-18T01:32:55;45.38;;;21.48;;
29314;SDS011;16320;53.954;9.506;2022-12-18T01:36:01;42.28;;;22.90;;
29314;SDS011;16320;53.954;9.506;2022-12-18T01:39:09;45.38;;;23.27;;
29314;SDS011;16320;53.954;9.506;2022-12-18T01:42:17;39.75;;;21.52;;
29314;SDS011;16320;53.954;9.506;2022-12-18T01:45:23;41.08;;;21.17;;
29314;SDS011;16320;53.954;9.506;2022-12-18T01:48:33;41.33;;;20.83;;
29314;SDS011;16320;53.954;9.506;2022-12-18T01:51:37;40.58;;;22.33;;
29314;SDS011;16320;53.954;9.506;2022-12-18T01:54:42;41.60;;;20.85;;
29314;SDS011;16320;53.954;9.506;2022-12-18T01:57:49;44.75;;;21.45;;
29314;SDS011;16320;53.954;9.506;2022-12-18T02:00:58;41.85;;;21.60;;
29314;SDS011;16320;53.954;9.506;2022-12-18T02:04:22;44.15;;;21.17;;
29314;SDS011;16320;53.954;9.506;2022-12-18T02:18:36;38.35;;;19.35;;
29314;SDS011;16320;53.954;9.506;2022-12-18T02:29:13;42.97;;;20.58;;
29314;SDS011;16320;53.954;9.506;2022-12-18T02:32:27;43.00;;;19.83;;
29314;SDS011;16320;53.954;9.506;2022-12-18T02:35:37;39.47;;;20.30;;
29314;SDS011;16320;53.954;9.506;2022-12-18T02:38:44;37.17;;;19.92;;
29314;SDS011;16320;53.954;9.506;2022-12-18T02:41:50;38.00;;;19.70;;
29314;SDS011;16320;53.954;9.506;2022-12-18T02:44:56;42.95;;;20.85;;
29314;SDS011;16320;53.954;9.506;2022-12-18T02:48:00;37.38;;;20.15;;
29314;SDS011;16320;53.954;9.506;2022-12-18T02:51:16;40.05;;;19.92;;
29314;SDS011;16320;53.954;9.506;2022-12-18T02:58:04;37.35;;;19.10;;
29314;SDS011;16320;53.954;9.506;2022-12-18T03:05:02;34.00;;;18.23;;
29314;SDS011;16320;53.954;9.506;2022-12-18T03:08:21;36.83;;;19.45;;
29314;SDS011;16320;53.954;9.506;2022-12-18T03:11:32;39.13;;;19.80;;
29314;SDS011;16320;53.954;9.506;2022-12-18T03:19:06;34.83;;;17.85;;
29314;SDS011;16320;53.954;9.506;2022-12-18T03:22:04;37.67;;;19.38;;
29314;SDS011;16320;53.954;9.506;2022-12-18T03:25:13;44.22;;;19.20;;
29314;SDS011;16320;53.954;9.506;2022-12-18T03:28:20;42.30;;;18.63;;
29314;SDS011;16320;53.954;9.506;2022-12-18T03:31:26;35.58;;;17.75;;
29314;SDS011;16320;53.954;9.506;2022-12-18T03:34:35;38.22;;;19.60;;
29314;SDS011;16320;53.954;9.506;2022-12-18T03:37:44;37.00;;;18.75;;
29314;SDS011;16320;53.954;9.506;2022-12-18T03:44:13;43.13;;;18.80;;
29314;SDS011;16320;53.954;9.506;2022-12-18T03:51:16;38.65;;;18.83;;
29314;SDS011;16320;53.954;9.506;2022-12-18T03:54:43;28.92;;;15.40;;
29314;SDS011;16320;53.954;9.506;2022-12-18T03:57:50;29.73;;;16.40;;
29314;SDS011;16320;53.954;9.506;2022-12-18T04:00:59;30.85;;;16.30;;
29314;SDS011;16320;53.954;9.506;2022-12-18T04:04:08;35.92;;;17.27;;
29314;SDS011;16320;53.954;9.506;2022-12-18T04:07:14;38.30;;;17.98;;
29314;SDS011;16320;53.954;9.506;2022-12-18T04:10:20;31.05;;;16.52;;
29314;SDS011;16320;53.954;9.506;2022-12-18T04:13:28;32.88;;;15.95;;
29314;SDS011;16320;53.954;9.506;2022-12-18T04:16:37;36.80;;;16.65;;
29314;SDS011;16320;53.954;9.506;2022-12-18T04:19:42;31.20;;;16.02;;
29314;SDS011;16320;53.954;9.506;2022-12-18T04:22:46;33.03;;;16.38;;
29314;SDS011;16320;53.954;9.506;2022-12-18T04:25:51;33.60;;;15.88;;
29314;SDS011;16320;53.954;9.506;2022-12-18T04:28:55;30.77;;;15.55;;
29314;SDS011;16320;53.954;9.506;2022-12-18T04:31:59;34.63;;;15.02;;
29314;SDS011;16320;53.954;9.506;2022-12-18T04:35:04;26.05;;;14.20;;
29314;SDS011;16320;53.954;9.506;2022-12-18T04:38:12;31.58;;;15.07;;
29314;SDS011;16320;53.954;9.506;2022-12-18T04:41:16;32.88;;;15.27;;
29314;SDS011;16320;53.954;9.506;2022-12-18T04:44:20;28.92;;;14.52;;
29314;SDS011;16320;53.954;9.506;2022-12-18T04:47:25;24.08;;;13.32;;
29314;SDS011;16320;53.954;9.506;2022-12-18T04:50:30;26.40;;;14.10;;
29314;SDS011;16320;53.954;9.506;2022-12-18T04:53:35;27.08;;;13.35;;
29314;SDS011;16320;53.954;9.506;2022-12-18T04:56:39;33.67;;;14.77;;
29314;SDS011;16320;53.954;9.506;2022-12-18T04:59:44;22.50;;;12.75;;
29314;SDS011;16320;53.954;9.506;2022-12-18T05:02:48;26.85;;;13.45;;
29314;SDS011;16320;53.954;9.506;2022-12-18T05:05:53;25.77;;;13.23;;
29314;SDS011;16320;53.954;9.506;2022-12-18T05:08:58;25.17;;;12.77;;
29314;SDS011;16320;53.954;9.506;2022-12-18T05:12:02;29.35;;;13.45;;
29314;SDS011;16320;53.954;9.506;2022-12-18T05:15:06;25.23;;;12.55;;
29314;SDS011;16320;53.954;9.506;2022-12-18T05:18:12;22.25;;;12.18;;
29314;SDS011;16320;53.954;9.506;2022-12-18T05:21:17;31.63;;;13.35;;
29314;SDS011;16320;53.954;9.506;2022-12-18T05:24:21;22.77;;;12.30;;
29314;SDS011;16320;53.954;9.506;2022-12-18T05:27:25;28.38;;;12.73;;
29314;SDS011;16320;53.954;9.506;2022-12-18T05:30:30;23.00;;;11.55;;
29314;SDS011;16320;53.954;9.506;2022-12-18T05:33:36;25.77;;;12.65;;
29314;SDS011;16320;53.954;9.506;2022-12-18T05:36:41;24.58;;;12.65;;
29314;SDS011;16320;53.954;9.506;2022-12-18T05:39:47;27.50;;;12.57;;
29314;SDS011;16320;53.954;9.506;2022-12-18T05:42:51;22.50;;;12.77;;
29314;SDS011;16320;53.954;9.506;2022-12-18T05:45:56;25.02;;;13.15;;
29314;SDS011;16320;53.954;9.506;2022-12-18T05:49:01;24.85;;;12.55;;
29314;SDS011;16320;53.954;9.506;2022-12-18T05:52:06;24.20;;;12.77;;
29314;SDS011;16320;53.954;9.506;2022-12-18T05:55:11;23.20;;;12.95;;
29314;SDS011;16320;53.954;9.506;2022-12-18T05:58:15;26.27;;;13.15;;
29314;SDS011;16320;53.954;9.506;2022-12-18T06:01:22;22.80;;;12.20;;
29314;SDS011;16320;53.954;9.506;2022-12-18T06:04:29;25.67;;;12.30;;
29314;SDS011;16320;53.954;9.506;2022-12-18T06:07:34;23.02;;;12.77;;
29314;SDS011;16320;53.954;9.506;2022-12-18T06:10:39;18.80;;;11.20;;
29314;SDS011;16320;53.954;9.506;2022-12-18T06:13:53;22.60;;;11.90;;
29314;SDS011;16320;53.954;9.506;2022-12-18T06:17:02;24.23;;;12.30;;
29314;SDS011;16320;53.954;9.506;2022-12-18T06:20:06;24.08;;;12.57;;
29314;SDS011;16320;53.954;9.506;2022-12-18T06:23:11;26.83;;;12.65;;
29314;SDS011;16320;53.954;9.506;2022-12-18T06:26:15;21.23;;;11.50;;
29314;SDS011;16320;53.954;9.506;2022-12-18T06:29:20;30.80;;;12.68;;
29314;SDS011;16320;53.954;9.506;2022-12-18T06:32:25;25.30;;;12.60;;
29314;SDS011;16320;53.954;9.506;2022-12-18T06:35:31;24.77;;;12.52;;
29314;SDS011;16320;53.954;9.506;2022-12-18T06:38:37;23.50;;;12.60;;
29314;SDS011;16320;53.954;9.506;2022-12-18T06:41:44;28.42;;;12.25;;
29314;SDS011;16320;53.954;9.506;2022-12-18T06:44:49;26.95;;;13.57;;
29314;SDS011;16320;53.954;9.506;2022-12-18T06:47:53;24.30;;;13.18;;
29314;SDS011;16320;53.954;9.506;2022-12-18T06:50:58;25.63;;;12.10;;
29314;SDS011;16320;53.954;9.506;2022-12-18T06:54:04;22.10;;;11.63;;
29314;SDS011;16320;53.954;9.506;2022-12-18T06:57:09;23.98;;;11.57;;
29314;SDS011;16320;53.954;9.506;2022-12-18T07:00:14;19.73;;;10.88;;
29314;SDS011;16320;53.954;9.506;2022-12-18T07:03:18;21.13;;;11.15;;
29314;SDS011;16320;53.954;9.506;2022-12-18T07:06:23;21.30;;;12.18;;
29314;SDS011;16320;53.954;9.506;2022-12-18T07:09:29;19.55;;;11.25;;
29314;SDS011;16320;53.954;9.506;2022-12-18T07:12:33;24.23;;;11.50;;
29314;SDS011;16320;53.954;9.506;2022-12-18T07:15:38;20.63;;;11.38;;
29314;SDS011;16320;53.954;9.506;2022-12-18T07:18:42;19.52;;;11.55;;
29314;SDS011;16320;53.954;9.506;2022-12-18T07:21:47;26.50;;;10.50;;
29314;SDS011;16320;53.954;9.506;2022-12-18T07:24:52;23.60;;;11.63;;
29314;SDS011;16320;53.954;9.506;2022-12-18T07:27:57;22.83;;;11.88;;
29314;SDS011;16320;53.954;9.506;2022-12-18T07:31:02;19.58;;;10.50;;
29314;SDS011;16320;53.954;9.506;2022-12-18T07:34:11;24.60;;;11.25;;
29314;SDS011;16320;53.954;9.506;2022-12-18T07:37:17;21.33;;;12.30;;
29314;SDS011;16320;53.954;9.506;2022-12-18T07:40:22;20.85;;;10.45;;
29314;SDS011;16320;53.954;9.506;2022-12-18T07:43:26;21.48;;;11.75;;
29314;SDS011;16320;53.954;9.506;2022-12-18T07:46:30;20.33;;;11.43;;
29314;SDS011;16320;53.954;9.506;2022-12-18T07:49:34;22.92;;;11.45;;
29314;SDS011;16320;53.954;9.506;2022-12-18T07:52:39;23.45;;;10.52;;
29314;SDS011;16320;53.954;9.506;2022-12-18T07:55:45;22.67;;;11.13;;
29314;SDS011;16320;53.954;9.506;2022-12-18T07:59:09;20.38;;;10.13;;
29314;SDS011;16320;53.954;9.506;2022-12-18T08:02:14;20.55;;;10.73;;
29314;SDS011;16320;53.954;9.506;2022-12-18T08:05:18;16.48;;;9.35;;
29314;SDS011;16320;53.954;9.506;2022-12-18T08:08:24;18.42;;;9.30;;
29314;SDS011;16320;53.954;9.506;2022-12-18T08:11:28;17.77;;;9.60;;
29314;SDS011;16320;53.954;9.506;2022-12-18T08:14:33;18.85;;;10.65;;
29314;SDS011;16320;53.954;9.506;2022-12-18T08:17:38;23.02;;;9.35;;
29314;SDS011;16320;53.954;9.506;2022-12-18T08:20:42;20.45;;;10.80;;
29314;SDS011;16320;53.954;9.506;2022-12-18T08:23:46;21.05;;;9.70;;
29314;SDS011;16320;53.954;9.506;2022-12-18T08:26:54;19.33;;;9.73;;
29314;SDS011;16320;53.954;9.506;2022-12-18T08:30:20;20.98;;;9.80;;
29314;SDS011;16320;53.954;9.506;2022-12-18T08:33:24;18.33;;;10.30;;
29314;SDS011;16320;53.954;9.506;2022-12-18T08:36:29;19.58;;;10.65;;
29314;SDS011;16320;53.954;9.506;2022-12-18T08:39:34;21.10;;;10.10;;
29314;SDS011;16320;53.954;9.506;2022-12-18T08:42:39;22.30;;;10.23;;
29314;SDS011;16320;53.954;9.506;2022-12-18T08:46:02;18.02;;;9.82;;
29314;SDS011;16320;53.954;9.506;2022-12-18T08:49:06;18.98;;;10.32;;
29314;SDS011;16320;53.954;9.506;2022-12-18T08:52:13;18.50;;;10.63;;
29314;SDS011;16320;53.954;9.506;2022-12-18T08:55:17;18.85;;;9.82;;
29314;SDS011;16320;53.954;9.506;2022-12-18T08:58:22;22.55;;;10.68;;
29314;SDS011;16320;53.954;9.506;2022-12-18T09:01:27;20.63;;;11.05;;
29314;SDS011;16320;53.954;9.506;2022-12-18T09:04:32;23.92;;;11.88;;
29314;SDS011;16320;53.954;9.506;2022-12-18T09:07:37;25.40;;;11.07;;
29314;SDS011;16320;53.954;9.506;2022-12-18T09:10:44;17.55;;;10.75;;
29314;SDS011;16320;53.954;9.506;2022-12-18T09:13:52;19.85;;;10.25;;
29314;SDS011;16320;53.954;9.506;2022-12-18T09:16:58;22.65;;;11.02;;
29314;SDS011;16320;53.954;9.506;2022-12-18T09:20:04;23.90;;;11.98;;
29314;SDS011;16320;53.954;9.506;2022-12-18T09:23:12;26.52;;;11.95;;
29314;SDS011;16320;53.954;9.506;2022-12-18T09:26:17;19.60;;;11.25;;
29314;SDS011;16320;53.954;9.506;2022-12-18T09:29:22;23.23;;;11.98;;
29314;SDS011;16320;53.954;9.506;2022-12-18T09:32:27;17.08;;;9.98;;
29314;SDS011;16320;53.954;9.506;2022-12-18T09:35:31;27.33;;;11.23;;
29314;SDS011;16320;53.954;9.506;2022-12-18T09:38:37;24.42;;;11.40;;
29314;SDS011;16320;53.954;9.506;2022-12-18T09:41:44;21.73;;;10.32;;
29314;SDS011;16320;53.954;9.506;2022-12-18T09:44:52;16.75;;;9.40;;
29314;SDS011;16320;53.954;9.506;2022-12-18T09:47:58;21.63;;;11.05;;
29314;SDS011;16320;53.954;9.506;2022-12-18T09:51:17;23.13;;;9.68;;
29314;SDS011;16320;53.954;9.506;2022-12-18T09:54:36;24.23;;;10.32;;
29314;SDS011;16320;53.954;9.506;2022-12-18T09:58:39;22.88;;;11.38;;
29314;SDS011;16320;53.954;9.506;2022-12-18T10:01:34;16.58;;;10.13;;
29314;SDS011;16320;53.954;9.506;2022-12-18T10:05:11;20.95;;;10.32;;
29314;SDS011;16320;53.954;9.506;2022-12-18T10:12:30;17.63;;;9.95;;
29314;SDS011;16320;53.954;9.506;2022-12-18T10:16:09;22.00;;;10.15;;
29314;SDS011;16320;53.954;9.506;2022-12-18T10:23:19;19.75;;;10.40;;
29314;SDS011;16320;53.954;9.506;2022-12-18T10:30:21;16.38;;;9.57;;
29314;SDS011;16320;53.954;9.506;2022-12-18T10:33:31;22.45;;;11.13;;
29314;SDS011;16320;53.954;9.506;2022-12-18T10:36:38;19.70;;;10.27;;
29314;SDS011;16320;53.954;9.506;2022-12-18T10:39:42;15.25;;;8.80;;
29314;SDS011;16320;53.954;9.506;2022-12-18T10:43:02;14.30;;;9.23;;
29314;SDS011;16320;53.954;9.506;2022-12-18T10:46:19;18.60;;;11.02;;
29314;SDS011;16320;53.954;9.506;2022-12-18T10:49:26;15.95;;;9.15;;
29314;SDS011;16320;53.954;9.506;2022-12-18T10:52:34;20.20;;;9.27;;
29314;SDS011;16320;53.954;9.506;2022-12-18T10:55:44;21.58;;;9.10;;
29314;SDS011;16320;53.954;9.506;2022-12-18T10:59:01;21.73;;;11.48;;
29314;SDS011;16320;53.954;9.506;2022-12-18T11:02:23;21.63;;;10.05;;
29314;SDS011;16320;53.954;9.506;2022-12-18T11:05:39;19.77;;;11.45;;
29314;SDS011;16320;53.954;9.506;2022-12-18T11:08:46;21.42;;;12.10;;
29314;SDS011;16320;53.954;9.506;2022-12-18T11:12:18;21.35;;;10.82;;
29314;SDS011;16320;53.954;9.506;2022-12-18T11:15:27;21.02;;;11.50;;
29314;SDS011;16320;53.954;9.506;2022-12-18T11:18:34;24.38;;;13.10;;
29314;SDS011;16320;53.954;9.506;2022-12-18T11:21:42;15.32;;;9.18;;
29314;SDS011;16320;53.954;9.506;2022-12-18T11:31:42;18.38;;;10.18;;
29314;SDS011;16320;53.954;9.506;2022-12-18T11:34:50;15.57;;;9.75;;
29314;SDS011;16320;53.954;9.506;2022-12-18T11:38:22;18.70;;;9.80;;
29314;SDS011;16320;53.954;9.506;2022-12-18T11:41:49;21.08;;;11.10;;
29314;SDS011;16320;53.954;9.506;2022-12-18T11:48:20;19.13;;;9.35;;
29314;SDS011;16320;53.954;9.506;2022-12-18T11:51:58;17.92;;;9.65;;
29314;SDS011;16320;53.954;9.506;2022-12-18T11:55:40;18.23;;;10.00;;
29314;SDS011;16320;53.954;9.506;2022-12-18T11:59:08;17.65;;;10.10;;
29314;SDS011;16320;53.954;9.506;2022-12-18T12:02:30;18.65;;;9.73;;
29314;SDS011;16320;53.954;9.506;2022-12-18T12:09:23;21.35;;;10.88;;
29314;SDS011;16320;53.954;9.506;2022-12-18T12:17:01;17.35;;;10.45;;
29314;SDS011;16320;53.954;9.506;2022-12-18T12:31:15;23.23;;;11.18;;
29314;SDS011;16320;53.954;9.506;2022-12-18T12:38:18;21.83;;;12.75;;
29314;SDS011;16320;53.954;9.506;2022-12-18T12:41:30;20.33;;;12.48;;
29314;SDS011;16320;53.954;9.506;2022-12-18T12:44:56;27.38;;;13.18;;
29314;SDS011;16320;53.954;9.506;2022-12-18T12:48:10;29.73;;;14.30;;
29314;SDS011;16320;53.954;9.506;2022-12-18T12:51:53;28.45;;;13.88;;
29314;SDS011;16320;53.954;9.506;2022-12-18T12:55:23;26.55;;;13.80;;
29314;SDS011;16320;53.954;9.506;2022-12-18T12:58:34;25.20;;;14.10;;
29314;SDS011;16320;53.954;9.506;2022-12-18T13:01:57;27.98;;;14.35;;
29314;SDS011;16320;53.954;9.506;2022-12-18T13:05:17;17.10;;;10.35;;
29314;SDS011;16320;53.954;9.506;2022-12-18T13:12:04;23.52;;;13.00;;
29314;SDS011;16320;53.954;9.506;2022-12-18T13:19:18;22.15;;;12.75;;
29314;SDS011;16320;53.954;9.506;2022-12-18T13:22:50;22.73;;;12.05;;
29314;SDS011;16320;53.954;9.506;2022-12-18T13:25:56;21.70;;;13.07;;
29314;SDS011;16320;53.954;9.506;2022-12-18T13:29:42;23.75;;;12.35;;
29314;SDS011;16320;53.954;9.506;2022-12-18T13:32:57;28.42;;;14.52;;
29314;SDS011;16320;53.954;9.506;2022-12-18T13:36:30;27.77;;;13.88;;
29314;SDS011;16320;53.954;9.506;2022-12-18T13:39:37;23.35;;;12.65;;
29314;SDS011;16320;53.954;9.506;2022-12-18T13:42:42;26.15;;;13.70;;
29314;SDS011;16320;53.954;9.506;2022-12-18T13:49:40;27.40;;;12.38;;
29314;SDS011;16320;53.954;9.506;2022-12-18T13:52:47;28.48;;;12.52;;
29314;SDS011;16320;53.954;9.506;2022-12-18T13:55:56;36.72;;;16.92;;
29314;SDS011;16320;53.954;9.506;2022-12-18T13:59:15;26.98;;;13.77;;
29314;SDS011;16320;53.954;9.506;2022-12-18T14:02:28;28.17;;;14.45;;
29314;SDS011;16320;53.954;9.506;2022-12-18T14:05:34;22.65;;;11.98;;
29314;SDS011;16320;53.954;9.506;2022-12-18T14:08:48;23.80;;;12.80;;
29314;SDS011;16320;53.954;9.506;2022-12-18T14:11:53;27.55;;;12.73;;
29314;SDS011;16320;53.954;9.506;2022-12-18T14:18:43;20.67;;;11.50;;
29314;SDS011;16320;53.954;9.506;2022-12-18T14:22:24;22.10;;;14.15;;
29314;SDS011;16320;53.954;9.506;2022-12-18T14:25:36;23.13;;;12.68;;
29314;SDS011;16320;53.954;9.506;2022-12-18T14:28:44;22.75;;;12.07;;
29314;SDS011;16320;53.954;9.506;2022-12-18T14:35:22;23.95;;;10.88;;
29314;SDS011;16320;53.954;9.506;2022-12-18T14:41:37;23.33;;;11.27;;
29314;SDS011;16320;53.954;9.506;2022-12-18T14:44:42;27.08;;;12.85;;
29314;SDS011;16320;53.954;9.506;2022-12-18T14:48:16;21.42;;;11.88;;
29314;SDS011;16320;53.954;9.506;2022-12-18T14:51:29;21.77;;;10.57;;
29314;SDS011;16320;53.954;9.506;2022-12-18T14:54:37;25.05;;;13.40;;
29314;SDS011;16320;53.954;9.506;2022-12-18T15:01:59;22.17;;;12.00;;
29314;SDS011;16320;53.954;9.506;2022-12-18T15:05:20;23.75;;;11.55;;
29314;SDS011;16320;53.954;9.506;2022-12-18T15:08:36;25.73;;;11.55;;
29314;SDS011;16320;53.954;9.506;2022-12-18T15:11:56;24.30;;;11.50;;
29314;SDS011;16320;53.954;9.506;2022-12-18T15:15:04;28.38;;;12.68;;
29314;SDS011;16320;53.954;9.506;2022-12-18T15:18:45;26.30;;;13.00;;
29314;SDS011;16320;53.954;9.506;2022-12-18T15:21:53;28.20;;;13.45;;
29314;SDS011;16320;53.954;9.506;2022-12-18T15:28:51;33.80;;;13.75;;
29314;SDS011;16320;53.954;9.506;2022-12-18T15:32:05;28.08;;;13.75;;
29314;SDS011;16320;53.954;9.506;2022-12-18T15:35:23;29.05;;;12.60;;
29314;SDS011;16320;53.954;9.506;2022-12-18T15:38:29;29.88;;;13.32;;
29314;SDS011;16320;53.954;9.506;2022-12-18T15:41:37;31.60;;;14.93;;
29314;SDS011;16320;53.954;9.506;2022-12-18T15:45:10;30.15;;;13.55;;
29314;SDS011;16320;53.954;9.506;2022-12-18T15:48:26;42.70;;;19.83;;
29314;SDS011;16320;53.954;9.506;2022-12-18T15:55:22;31.17;;;14.73;;
29314;SDS011;16320;53.954;9.506;2022-12-18T15:58:49;37.75;;;15.45;;
29314;SDS011;16320;53.954;9.506;2022-12-18T16:02:13;31.63;;;14.40;;
29314;SDS011;16320;53.954;9.506;2022-12-18T16:05:40;31.40;;;13.68;;
29314;SDS011;16320;53.954;9.506;2022-12-18T16:08:54;38.47;;;14.60;;
29314;SDS011;16320;53.954;9.506;2022-12-18T16:12:29;37.85;;;14.88;;
29314;SDS011;16320;53.954;9.506;2022-12-18T16:15:49;32.28;;;15.63;;
29314;SDS011;16320;53.954;9.506;2022-12-18T16:19:03;33.90;;;15.27;;
29314;SDS011;16320;53.954;9.506;2022-12-18T16:22:18;40.70;;;15.20;;
29314;SDS011;16320;53.954;9.506;2022-12-18T16:25:51;32.22;;;15.02;;
29314;SDS011;16320;53.954;9.506;2022-12-18T16:29:04;35.17;;;16.23;;
29314;SDS011;16320;53.954;9.506;2022-12-18T16:32:20;37.78;;;16.13;;
29314;SDS011;16320;53.954;9.506;2022-12-18T16:35:30;40.85;;;17.27;;
29314;SDS011;16320;53.954;9.506;2022-12-18T16:38:51;38.08;;;17.00;;
29314;SDS011;16320;53.954;9.506;2022-12-18T16:42:16;40.63;;;18.40;;
29314;SDS011;16320;53.954;9.506;2022-12-18T16:45:44;56.08;;;25.90;;
29314;SDS011;16320;53.954;9.506;2022-12-18T16:49:02;43.85;;;19.42;;
29314;SDS011;16320;53.954;9.506;2022-12-18T16:55:44;45.92;;;17.80;;
29314;SDS011;16320;53.954;9.506;2022-12-18T16:59:09;46.38;;;16.50;;
29314;SDS011;16320;53.954;9.506;2022-12-18T17:02:17;41.05;;;17.85;;
29314;SDS011;16320;53.954;9.506;2022-12-18T17:05:32;42.38;;;16.60;;
29314;SDS011;16320;53.954;9.506;2022-12-18T17:08:39;55.05;;;19.02;;
29314;SDS011;16320;53.954;9.506;2022-12-18T17:11:46;43.75;;;17.67;;
29314;SDS011;16320;53.954;9.506;2022-12-18T17:14:56;51.33;;;17.83;;
29314;SDS011;16320;53.954;9.506;2022-12-18T17:18:01;41.83;;;17.75;;
29314;SDS011;16320;53.954;9.506;2022-12-18T17:21:06;48.85;;;18.77;;
29314;SDS011;16320;53.954;9.506;2022-12-18T17:24:12;42.97;;;17.65;;
29314;SDS011;16320;53.954;9.506;2022-12-18T17:27:18;48.78;;;20.08;;
29314;SDS011;16320;53.954;9.506;2022-12-18T17:30:26;45.92;;;17.75;;
29314;SDS011;16320;53.954;9.506;2022-12-18T17:33:31;44.17;;;17.73;;
29314;SDS011;16320;53.954;9.506;2022-12-18T17:36:35;40.28;;;18.30;;
29314;SDS011;16320;53.954;9.506;2022-12-18T17:39:43;60.83;;;26.20;;
29314;SDS011;16320;53.954;9.506;2022-12-18T17:42:51;92.70;;;30.75;;
29314;SDS011;16320;53.954;9.506;2022-12-18T17:46:00;74.95;;;26.38;;
29314;SDS011;16320;53.954;9.506;2022-12-18T17:49:08;55.97;;;19.95;;
29314;SDS011;16320;53.954;9.506;2022-12-18T17:52:21;52.50;;;19.67;;
29314;SDS011;16320;53.954;9.506;2022-12-18T17:55:34;48.80;;;18.77;;
29314;SDS011;16320;53.954;9.506;2022-12-18T17:58:44;50.55;;;18.95;;
29314;SDS011;16320;53.954;9.506;2022-12-18T18:01:50;46.20;;;18.55;;
29314;SDS011;16320;53.954;9.506;2022-12-18T18:04:55;46.10;;;18.02;;
29314;SDS011;16320;53.954;9.506;2022-12-18T18:08:04;42.70;;;17.40;;
29314;SDS011;16320;53.954;9.506;2022-12-18T18:11:16;54.53;;;19.73;;
29314;SDS011;16320;53.954;9.506;2022-12-18T18:14:52;47.25;;;19.33;;
29314;SDS011;16320;53.954;9.506;2022-12-18T18:17:59;51.17;;;21.98;;
29314;SDS011;16320;53.954;9.506;2022-12-18T18:21:07;45.03;;;19.38;;
29314;SDS011;16320;53.954;9.506;2022-12-18T18:24:14;42.47;;;18.88;;
29314;SDS011;16320;53.954;9.506;2022-12-18T18:27:26;49.53;;;19.65;;
29314;SDS011;16320;53.954;9.506;2022-12-18T18:30:43;34.92;;;14.25;;
29314;SDS011;16320;53.954;9.506;2022-12-18T18:33:57;40.45;;;18.48;;
29314;SDS011;16320;53.954;9.506;2022-12-18T18:37:02;46.85;;;19.60;;
29314;SDS011;16320;53.954;9.506;2022-12-18T18:40:10;51.38;;;21.08;;
29314;SDS011;16320;53.954;9.506;2022-12-18T18:43:31;45.75;;;18.05;;
29314;SDS011;16320;53.954;9.506;2022-12-18T18:46:36;88.80;;;34.28;;
29314;SDS011;16320;53.954;9.506;2022-12-18T18:49:46;48.08;;;21.98;;
29314;SDS011;16320;53.954;9.506;2022-12-18T18:52:53;51.78;;;21.23;;
29314;SDS011;16320;53.954;9.506;2022-12-18T18:56:09;39.20;;;19.00;;
29314;SDS011;16320;53.954;9.506;2022-12-18T18:59:35;45.50;;;19.88;;
29314;SDS011;16320;53.954;9.506;2022-12-18T19:02:44;39.10;;;17.40;;
29314;SDS011;16320;53.954;9.506;2022-12-18T19:05:57;37.17;;;17.33;;
29314;SDS011;16320;53.954;9.506;2022-12-18T19:09:04;40.88;;;17.88;;
29314;SDS011;16320;53.954;9.506;2022-12-18T19:12:19;38.60;;;16.92;;
29314;SDS011;16320;53.954;9.506;2022-12-18T19:16:16;43.28;;;17.17;;
29314;SDS011;16320;53.954;9.506;2022-12-18T19:19:27;38.13;;;17.42;;
29314;SDS011;16320;53.954;9.506;2022-12-18T19:23:05;36.25;;;15.77;;
29314;SDS011;16320;53.954;9.506;2022-12-18T19:26:18;38.70;;;16.58;;
29314;SDS011;16320;53.954;9.506;2022-12-18T19:29:31;34.50;;;17.08;;
29314;SDS011;16320;53.954;9.506;2022-12-18T19:32:41;38.80;;;15.93;;
29314;SDS011;16320;53.954;9.506;2022-12-18T19:35:59;36.90;;;17.50;;
29314;SDS011;16320;53.954;9.506;2022-12-18T19:39:18;34.08;;;16.23;;
29314;SDS011;16320;53.954;9.506;2022-12-18T19:42:28;38.97;;;17.52;;
29314;SDS011;16320;53.954;9.506;2022-12-18T19:45:38;50.30;;;25.02;;
29314;SDS011;16320;53.954;9.506;2022-12-18T19:48:51;41.70;;;18.00;;
29314;SDS011;16320;53.954;9.506;2022-12-18T19:52:04;32.97;;;16.10;;
29314;SDS011;16320;53.954;9.506;2022-12-18T19:58:53;37.17;;;15.05;;
29314;SDS011;16320;53.954;9.506;2022-12-18T20:02:13;27.08;;;13.75;;
29314;SDS011;16320;53.954;9.506;2022-12-18T20:05:45;29.25;;;13.48;;
29314;SDS011;16320;53.954;9.506;2022-12-18T20:09:03;32.15;;;15.32;;
29314;SDS011;16320;53.954;9.506;2022-12-18T20:12:09;26.52;;;13.95;;
29314;SDS011;16320;53.954;9.506;2022-12-18T20:15:27;33.55;;;15.30;;
29314;SDS011;16320;53.954;9.506;2022-12-18T20:18:33;34.63;;;15.15;;
29314;SDS011;16320;53.954;9.506;2022-12-18T20:22:02;34.13;;;17.35;;
29314;SDS011;16320;53.954;9.506;2022-12-18T20:25:07;28.48;;;15.20;;
29314;SDS011;16320;53.954;9.506;2022-12-18T20:28:44;33.60;;;14.85;;
29314;SDS011;16320;53.954;9.506;2022-12-18T20:32:09;30.80;;;14.98;;
29314;SDS011;16320;53.954;9.506;2022-12-18T20:35:43;28.05;;;13.85;;
29314;SDS011;16320;53.954;9.506;2022-12-18T20:39:13;26.50;;;13.20;;
29314;SDS011;16320;53.954;9.506;2022-12-18T20:42:23;27.58;;;13.23;;
29314;SDS011;16320;53.954;9.506;2022-12-18T20:45:38;27.65;;;13.27;;